sensor_id;sensor_type;location;lat;lon;timestamp;P1;durP1;ratioP1;P2;durP2;ratioP2
21569;SDS011;57598;50.888;4.746;2023-02-26T00:38:03;29.98;;;28.30;;
21569;SDS011;57598;50.888;4.746;2023-02-26T00:43:25;28.25;;;26.65;;
21569;SDS011;57598;50.888;4.746;2023-02-26T00:45:55;29.00;;;27.40;;
21569;SDS011;57598;50.888;4.746;2023-02-26T00:48:36;32.85;;;30.77;;
21569;SDS011;57598;50.888;4.746;2023-02-26T00:51:20;28.90;;;27.30;;
21569;SDS011;57598;50.888;4.746;2023-02-26T00:53:58;29.30;;;27.60;;
21569;SDS011;57598;50.888;4.746;2023-02-26T00:56:32;28.65;;;27.05;;
21569;SDS011;57598;50.888;4.746;2023-02-26T00:59:01;30.27;;;28.27;;
21569;SDS011;57598;50.888;4.746;2023-02-26T01:01:39;28.40;;;26.80;;
21569;SDS011;57598;50.888;4.746;2023-02-26T01:04:08;28.25;;;26.65;;
21569;SDS011;57598;50.888;4.746;2023-02-26T01:07:03;28.73;;;27.10;;
21569;SDS011;57598;50.888;4.746;2023-02-26T01:09:48;28.75;;;27.15;;
21569;SDS011;57598;50.888;4.746;2023-02-26T01:12:24;29.00;;;27.33;;
21569;SDS011;57598;50.888;4.746;2023-02-26T01:15:06;29.60;;;27.90;;
21569;SDS011;57598;50.888;4.746;2023-02-26T01:17:43;29.63;;;27.92;;
21569;SDS011;57598;50.888;4.746;2023-02-26T01:22:54;32.20;;;30.35;;
21569;SDS011;57598;50.888;4.746;2023-02-26T01:25:34;30.48;;;28.73;;
21569;SDS011;57598;50.888;4.746;2023-02-26T01:28:03;30.33;;;28.60;;
21569;SDS011;57598;50.888;4.746;2023-02-26T01:30:32;33.13;;;31.23;;
21569;SDS011;57598;50.888;4.746;2023-02-26T01:33:09;30.35;;;28.65;;
21569;SDS011;57598;50.888;4.746;2023-02-26T01:35:39;30.70;;;28.90;;
21569;SDS011;57598;50.888;4.746;2023-02-26T01:38:12;31.83;;;29.92;;
21569;SDS011;57598;50.888;4.746;2023-02-26T01:43:41;35.25;;;33.22;;
21569;SDS011;57598;50.888;4.746;2023-02-26T01:46:17;30.90;;;29.10;;
21569;SDS011;57598;50.888;4.746;2023-02-26T01:49:01;31.52;;;29.73;;
21569;SDS011;57598;50.888;4.746;2023-02-26T01:51:45;31.48;;;29.67;;
21569;SDS011;57598;50.888;4.746;2023-02-26T01:54:28;31.58;;;29.77;;
21569;SDS011;57598;50.888;4.746;2023-02-26T01:57:13;32.50;;;30.60;;
21569;SDS011;57598;50.888;4.746;2023-02-26T01:59:51;31.30;;;29.50;;
21569;SDS011;57598;50.888;4.746;2023-02-26T02:02:21;31.50;;;29.70;;
21569;SDS011;57598;50.888;4.746;2023-02-26T02:04:57;31.58;;;29.77;;
21569;SDS011;57598;50.888;4.746;2023-02-26T02:07:29;32.20;;;30.40;;
21569;SDS011;57598;50.888;4.746;2023-02-26T02:10:01;32.03;;;30.23;;
21569;SDS011;57598;50.888;4.746;2023-02-26T02:12:31;35.20;;;32.42;;
21569;SDS011;57598;50.888;4.746;2023-02-26T02:15:08;32.17;;;30.38;;
21569;SDS011;57598;50.888;4.746;2023-02-26T02:17:45;32.25;;;30.42;;
21569;SDS011;57598;50.888;4.746;2023-02-26T02:20:28;32.38;;;30.55;;
21569;SDS011;57598;50.888;4.746;2023-02-26T02:23:11;32.70;;;30.80;;
21569;SDS011;57598;50.888;4.746;2023-02-26T02:28:31;31.98;;;30.17;;
21569;SDS011;57598;50.888;4.746;2023-02-26T02:33:48;31.23;;;29.42;;
21569;SDS011;57598;50.888;4.746;2023-02-26T02:36:32;31.75;;;29.95;;
21569;SDS011;57598;50.888;4.746;2023-02-26T02:39:07;34.75;;;31.77;;
21569;SDS011;57598;50.888;4.746;2023-02-26T02:41:45;32.78;;;30.88;;
21569;SDS011;57598;50.888;4.746;2023-02-26T02:44:17;32.47;;;30.67;;
21569;SDS011;57598;50.888;4.746;2023-02-26T02:46:50;32.72;;;30.88;;
21569;SDS011;57598;50.888;4.746;2023-02-26T02:49:28;33.70;;;31.80;;
21569;SDS011;57598;50.888;4.746;2023-02-26T02:55:01;33.25;;;31.35;;
21569;SDS011;57598;50.888;4.746;2023-02-26T02:57:32;33.15;;;31.25;;
21569;SDS011;57598;50.888;4.746;2023-02-26T03:00:10;35.20;;;33.10;;
21569;SDS011;57598;50.888;4.746;2023-02-26T03:02:50;34.60;;;32.60;;
21569;SDS011;57598;50.888;4.746;2023-02-26T03:05:25;34.60;;;32.60;;
21569;SDS011;57598;50.888;4.746;2023-02-26T03:08:08;36.30;;;34.20;;
21569;SDS011;57598;50.888;4.746;2023-02-26T03:10:47;36.08;;;33.97;;
21569;SDS011;57598;50.888;4.746;2023-02-26T03:13:17;35.25;;;33.25;;
21569;SDS011;57598;50.888;4.746;2023-02-26T03:15:59;35.72;;;33.63;;
21569;SDS011;57598;50.888;4.746;2023-02-26T03:18:31;36.95;;;34.85;;
21569;SDS011;57598;50.888;4.746;2023-02-26T03:21:06;37.30;;;35.10;;
21569;SDS011;57598;50.888;4.746;2023-02-26T03:23:38;37.35;;;35.15;;
21569;SDS011;57598;50.888;4.746;2023-02-26T03:29:07;37.78;;;35.58;;
21569;SDS011;57598;50.888;4.746;2023-02-26T03:31:38;37.58;;;35.38;;
21569;SDS011;57598;50.888;4.746;2023-02-26T03:34:10;38.00;;;35.80;;
21569;SDS011;57598;50.888;4.746;2023-02-26T03:39:31;39.17;;;36.88;;
21569;SDS011;57598;50.888;4.746;2023-02-26T03:42:03;39.90;;;37.35;;
21569;SDS011;57598;50.888;4.746;2023-02-26T03:44:41;39.17;;;36.88;;
21569;SDS011;57598;50.888;4.746;2023-02-26T03:47:13;40.45;;;38.05;;
21569;SDS011;57598;50.888;4.746;2023-02-26T03:49:46;40.35;;;37.95;;
21569;SDS011;57598;50.888;4.746;2023-02-26T03:52:29;40.88;;;38.47;;
21569;SDS011;57598;50.888;4.746;2023-02-26T03:55:14;40.38;;;37.97;;
21569;SDS011;57598;50.888;4.746;2023-02-26T03:57:58;41.00;;;38.60;;
21569;SDS011;57598;50.888;4.746;2023-02-26T04:00:29;40.35;;;37.95;;
21569;SDS011;57598;50.888;4.746;2023-02-26T04:03:10;40.45;;;38.05;;
21569;SDS011;57598;50.888;4.746;2023-02-26T04:05:52;40.70;;;38.30;;
21569;SDS011;57598;50.888;4.746;2023-02-26T04:08:24;39.80;;;37.45;;
21569;SDS011;57598;50.888;4.746;2023-02-26T04:11:08;42.40;;;39.90;;
21569;SDS011;57598;50.888;4.746;2023-02-26T04:13:43;41.08;;;38.65;;
21569;SDS011;57598;50.888;4.746;2023-02-26T04:16:11;42.47;;;39.88;;
21569;SDS011;57598;50.888;4.746;2023-02-26T04:18:40;41.22;;;38.83;;
21569;SDS011;57598;50.888;4.746;2023-02-26T04:21:15;42.15;;;39.65;;
21569;SDS011;57598;50.888;4.746;2023-02-26T04:23:47;41.45;;;38.95;;
21569;SDS011;57598;50.888;4.746;2023-02-26T04:26:17;41.83;;;39.33;;
21569;SDS011;57598;50.888;4.746;2023-02-26T04:29:06;42.80;;;40.20;;
21569;SDS011;57598;50.888;4.746;2023-02-26T04:31:36;42.88;;;40.28;;
21569;SDS011;57598;50.888;4.746;2023-02-26T04:34:05;42.45;;;39.95;;
21569;SDS011;57598;50.888;4.746;2023-02-26T04:36:34;41.85;;;39.35;;
21569;SDS011;57598;50.888;4.746;2023-02-26T04:39:04;41.50;;;39.00;;
21569;SDS011;57598;50.888;4.746;2023-02-26T04:41:49;42.30;;;39.70;;
21569;SDS011;57598;50.888;4.746;2023-02-26T04:44:18;42.28;;;39.78;;
21569;SDS011;57598;50.888;4.746;2023-02-26T04:46:55;41.15;;;38.72;;
21569;SDS011;57598;50.888;4.746;2023-02-26T04:49:23;44.83;;;41.85;;
21569;SDS011;57598;50.888;4.746;2023-02-26T04:51:54;40.78;;;38.38;;
21569;SDS011;57598;50.888;4.746;2023-02-26T04:54:26;40.35;;;37.95;;
21569;SDS011;57598;50.888;4.746;2023-02-26T04:56:56;40.13;;;37.72;;
21569;SDS011;57598;50.888;4.746;2023-02-26T04:59:24;40.40;;;38.00;;
21569;SDS011;57598;50.888;4.746;2023-02-26T05:01:58;38.55;;;36.35;;
21569;SDS011;57598;50.888;4.746;2023-02-26T05:04:26;37.97;;;35.80;;
21569;SDS011;57598;50.888;4.746;2023-02-26T05:06:57;36.50;;;34.40;;
21569;SDS011;57598;50.888;4.746;2023-02-26T05:09:30;36.75;;;34.65;;
21569;SDS011;57598;50.888;4.746;2023-02-26T05:12:07;35.03;;;33.03;;
21569;SDS011;57598;50.888;4.746;2023-02-26T05:14:40;35.15;;;33.15;;
21569;SDS011;57598;50.888;4.746;2023-02-26T05:17:11;34.90;;;32.90;;
21569;SDS011;57598;50.888;4.746;2023-02-26T05:19:40;34.72;;;32.72;;
21569;SDS011;57598;50.888;4.746;2023-02-26T05:22:08;34.25;;;32.35;;
21569;SDS011;57598;50.888;4.746;2023-02-26T05:24:36;33.50;;;31.60;;
21569;SDS011;57598;50.888;4.746;2023-02-26T05:27:04;33.20;;;31.30;;
21569;SDS011;57598;50.888;4.746;2023-02-26T05:29:36;32.90;;;31.00;;
21569;SDS011;57598;50.888;4.746;2023-02-26T05:32:06;34.08;;;32.08;;
21569;SDS011;57598;50.888;4.746;2023-02-26T05:34:34;34.42;;;32.42;;
21569;SDS011;57598;50.888;4.746;2023-02-26T05:37:02;34.92;;;32.88;;
21569;SDS011;57598;50.888;4.746;2023-02-26T05:39:30;35.67;;;33.58;;
21569;SDS011;57598;50.888;4.746;2023-02-26T05:41:58;34.58;;;32.58;;
21569;SDS011;57598;50.888;4.746;2023-02-26T05:44:27;34.75;;;32.75;;
21569;SDS011;57598;50.888;4.746;2023-02-26T05:46:56;35.40;;;33.40;;
21569;SDS011;57598;50.888;4.746;2023-02-26T05:49:27;33.83;;;31.83;;
21569;SDS011;57598;50.888;4.746;2023-02-26T05:51:57;33.58;;;31.67;;
21569;SDS011;57598;50.888;4.746;2023-02-26T05:54:31;33.55;;;31.65;;
21569;SDS011;57598;50.888;4.746;2023-02-26T05:56:59;34.17;;;32.25;;
21569;SDS011;57598;50.888;4.746;2023-02-26T05:59:27;34.00;;;32.10;;
21569;SDS011;57598;50.888;4.746;2023-02-26T06:01:57;33.35;;;31.45;;
21569;SDS011;57598;50.888;4.746;2023-02-26T06:04:26;34.50;;;32.50;;
21569;SDS011;57598;50.888;4.746;2023-02-26T06:06:54;34.15;;;32.20;;
21569;SDS011;57598;50.888;4.746;2023-02-26T06:09:22;33.30;;;31.40;;
21569;SDS011;57598;50.888;4.746;2023-02-26T06:11:55;34.60;;;32.60;;
21569;SDS011;57598;50.888;4.746;2023-02-26T06:14:23;33.05;;;31.15;;
21569;SDS011;57598;50.888;4.746;2023-02-26T06:16:51;33.20;;;31.30;;
21569;SDS011;57598;50.888;4.746;2023-02-26T06:19:22;32.45;;;30.55;;
21569;SDS011;57598;50.888;4.746;2023-02-26T06:24:21;32.20;;;30.33;;
21569;SDS011;57598;50.888;4.746;2023-02-26T06:26:50;32.55;;;30.67;;
21569;SDS011;57598;50.888;4.746;2023-02-26T06:29:21;32.83;;;30.92;;
21569;SDS011;57598;50.888;4.746;2023-02-26T06:31:51;31.38;;;29.58;;
21569;SDS011;57598;50.888;4.746;2023-02-26T06:34:21;31.58;;;29.77;;
21569;SDS011;57598;50.888;4.746;2023-02-26T06:36:49;31.35;;;29.55;;
21569;SDS011;57598;50.888;4.746;2023-02-26T06:39:16;32.53;;;30.63;;
21569;SDS011;57598;50.888;4.746;2023-02-26T06:41:44;32.88;;;30.98;;
21569;SDS011;57598;50.888;4.746;2023-02-26T06:44:13;32.72;;;30.83;;
21569;SDS011;57598;50.888;4.746;2023-02-26T06:46:41;32.97;;;30.98;;
21569;SDS011;57598;50.888;4.746;2023-02-26T06:49:08;33.10;;;31.20;;
21569;SDS011;57598;50.888;4.746;2023-02-26T06:51:37;33.05;;;31.15;;
21569;SDS011;57598;50.888;4.746;2023-02-26T06:54:05;32.28;;;30.48;;
21569;SDS011;57598;50.888;4.746;2023-02-26T06:56:32;32.45;;;30.58;;
21569;SDS011;57598;50.888;4.746;2023-02-26T06:59:00;32.30;;;30.50;;
21569;SDS011;57598;50.888;4.746;2023-02-26T07:01:28;32.33;;;30.52;;
21569;SDS011;57598;50.888;4.746;2023-02-26T07:03:56;34.13;;;31.35;;
21569;SDS011;57598;50.888;4.746;2023-02-26T07:06:25;32.65;;;30.67;;
21569;SDS011;57598;50.888;4.746;2023-02-26T07:08:56;32.25;;;30.45;;
21569;SDS011;57598;50.888;4.746;2023-02-26T07:11:27;31.45;;;29.65;;
21569;SDS011;57598;50.888;4.746;2023-02-26T07:13:56;31.33;;;29.52;;
21569;SDS011;57598;50.888;4.746;2023-02-26T07:16:25;30.70;;;28.98;;
21569;SDS011;57598;50.888;4.746;2023-02-26T07:18:53;29.67;;;27.98;;
21569;SDS011;57598;50.888;4.746;2023-02-26T07:21:33;29.48;;;27.77;;
21569;SDS011;57598;50.888;4.746;2023-02-26T07:24:05;29.40;;;27.70;;
21569;SDS011;57598;50.888;4.746;2023-02-26T07:26:47;28.90;;;27.20;;
21569;SDS011;57598;50.888;4.746;2023-02-26T07:29:25;27.48;;;25.92;;
21569;SDS011;57598;50.888;4.746;2023-02-26T07:32:17;26.45;;;24.95;;
21569;SDS011;57598;50.888;4.746;2023-02-26T07:34:58;26.30;;;24.80;;
21569;SDS011;57598;50.888;4.746;2023-02-26T07:37:44;24.90;;;23.50;;
21569;SDS011;57598;50.888;4.746;2023-02-26T07:40:26;25.33;;;23.48;;
21569;SDS011;57598;50.888;4.746;2023-02-26T07:42:59;24.60;;;23.20;;
21569;SDS011;57598;50.888;4.746;2023-02-26T07:45:31;23.83;;;22.45;;
21569;SDS011;57598;50.888;4.746;2023-02-26T07:48:13;23.50;;;22.20;;
21569;SDS011;57598;50.888;4.746;2023-02-26T07:50:45;22.75;;;21.45;;
21569;SDS011;57598;50.888;4.746;2023-02-26T07:53:17;22.75;;;21.45;;
21569;SDS011;57598;50.888;4.746;2023-02-26T07:55:52;23.65;;;22.25;;
21569;SDS011;57598;50.888;4.746;2023-02-26T07:58:22;22.75;;;21.23;;
21569;SDS011;57598;50.888;4.746;2023-02-26T08:01:06;21.67;;;20.48;;
21569;SDS011;57598;50.888;4.746;2023-02-26T12:06:57;20.55;;;19.35;;
21569;SDS011;57598;50.888;4.746;2023-02-26T12:09:24;21.58;;;20.27;;
21569;SDS011;57598;50.888;4.746;2023-02-26T12:11:57;20.50;;;19.30;;
21569;SDS011;57598;50.888;4.746;2023-02-26T12:14:30;22.40;;;20.33;;
21569;SDS011;57598;50.888;4.746;2023-02-26T12:17:03;21.20;;;19.90;;
21569;SDS011;57598;50.888;4.746;2023-02-26T12:19:36;20.42;;;19.23;;
21569;SDS011;57598;50.888;4.746;2023-02-26T12:22:25;20.52;;;19.33;;
21569;SDS011;57598;50.888;4.746;2023-02-26T12:27:41;20.20;;;19.00;;
21569;SDS011;57598;50.888;4.746;2023-02-26T12:30:25;20.60;;;19.40;;
21569;SDS011;57598;50.888;4.746;2023-02-26T12:33:00;22.13;;;20.83;;
21569;SDS011;57598;50.888;4.746;2023-02-26T12:35:35;21.52;;;20.30;;
21569;SDS011;57598;50.888;4.746;2023-02-26T12:38:08;21.10;;;19.88;;
21569;SDS011;57598;50.888;4.746;2023-02-26T12:43:24;20.30;;;19.15;;
21569;SDS011;57598;50.888;4.746;2023-02-26T12:45:58;20.63;;;19.42;;
21569;SDS011;57598;50.888;4.746;2023-02-26T12:48:37;20.40;;;19.25;;
21569;SDS011;57598;50.888;4.746;2023-02-26T12:51:09;20.42;;;19.23;;
21569;SDS011;57598;50.888;4.746;2023-02-26T12:53:44;21.17;;;19.98;;
21569;SDS011;57598;50.888;4.746;2023-02-26T12:56:20;19.42;;;18.33;;
21569;SDS011;57598;50.888;4.746;2023-02-26T12:58:56;21.08;;;19.77;;
21569;SDS011;57598;50.888;4.746;2023-02-26T13:06:56;21.90;;;20.45;;
21569;SDS011;57598;50.888;4.746;2023-02-26T13:09:31;20.20;;;19.10;;
21569;SDS011;57598;50.888;4.746;2023-02-26T13:12:13;20.73;;;19.52;;
21569;SDS011;57598;50.888;4.746;2023-02-26T13:14:46;21.23;;;20.02;;
21569;SDS011;57598;50.888;4.746;2023-02-26T13:17:19;21.05;;;19.85;;
21569;SDS011;57598;50.888;4.746;2023-02-26T13:41:15;20.92;;;19.73;;
21569;SDS011;57598;50.888;4.746;2023-02-26T13:46:13;21.48;;;20.17;;
21569;SDS011;57598;50.888;4.746;2023-02-26T13:48:48;20.33;;;19.17;;
21569;SDS011;57598;50.888;4.746;2023-02-26T13:51:23;20.42;;;19.23;;
21569;SDS011;57598;50.888;4.746;2023-02-26T13:53:52;21.10;;;19.80;;
21569;SDS011;57598;50.888;4.746;2023-02-26T13:56:23;20.15;;;19.00;;
21569;SDS011;57598;50.888;4.746;2023-02-26T14:01:52;20.52;;;19.33;;
21569;SDS011;57598;50.888;4.746;2023-02-26T14:04:23;21.92;;;20.13;;
21569;SDS011;57598;50.888;4.746;2023-02-26T14:06:52;21.50;;;20.30;;
21569;SDS011;57598;50.888;4.746;2023-02-26T14:09:36;21.38;;;20.08;;
21569;SDS011;57598;50.888;4.746;2023-02-26T14:17:48;22.00;;;20.70;;
21569;SDS011;57598;50.888;4.746;2023-02-26T14:20:18;20.80;;;19.60;;
21569;SDS011;57598;50.888;4.746;2023-02-26T14:22:46;21.77;;;19.90;;
21569;SDS011;57598;50.888;4.746;2023-02-26T14:25:17;21.23;;;19.92;;
21569;SDS011;57598;50.888;4.746;2023-02-26T14:27:47;22.58;;;21.25;;
21569;SDS011;57598;50.888;4.746;2023-02-26T14:30:16;20.98;;;19.67;;
21569;SDS011;57598;50.888;4.746;2023-02-26T14:32:45;21.00;;;19.80;;
21569;SDS011;57598;50.888;4.746;2023-02-26T14:35:15;22.08;;;20.75;;
21569;SDS011;57598;50.888;4.746;2023-02-26T14:37:44;20.98;;;19.70;;
21569;SDS011;57598;50.888;4.746;2023-02-26T14:40:18;21.33;;;20.13;;
21569;SDS011;57598;50.888;4.746;2023-02-26T14:42:50;21.33;;;20.02;;
21569;SDS011;57598;50.888;4.746;2023-02-26T14:45:24;21.13;;;19.55;;
21569;SDS011;57598;50.888;4.746;2023-02-26T14:47:52;20.02;;;18.92;;
21569;SDS011;57598;50.888;4.746;2023-02-26T14:50:22;21.08;;;19.75;;
21569;SDS011;57598;50.888;4.746;2023-02-26T14:52:58;20.55;;;19.35;;
21569;SDS011;57598;50.888;4.746;2023-02-26T14:55:35;21.45;;;20.02;;
21569;SDS011;57598;50.888;4.746;2023-02-26T14:58:10;22.02;;;20.42;;
21569;SDS011;57598;50.888;4.746;2023-02-26T15:00:41;23.23;;;21.80;;
21569;SDS011;57598;50.888;4.746;2023-02-26T15:05:41;20.35;;;19.20;;
21569;SDS011;57598;50.888;4.746;2023-02-26T15:08:14;20.58;;;19.38;;
21569;SDS011;57598;50.888;4.746;2023-02-26T15:10:50;20.85;;;19.65;;
21569;SDS011;57598;50.888;4.746;2023-02-26T15:16:09;21.15;;;19.65;;
21569;SDS011;57598;50.888;4.746;2023-02-26T15:18:49;21.67;;;20.40;;
21569;SDS011;57598;50.888;4.746;2023-02-26T15:21:23;21.52;;;20.23;;
21569;SDS011;57598;50.888;4.746;2023-02-26T15:23:52;20.88;;;19.67;;
21569;SDS011;57598;50.888;4.746;2023-02-26T15:26:21;21.40;;;20.10;;
21569;SDS011;57598;50.888;4.746;2023-02-26T15:28:49;21.20;;;20.00;;
21569;SDS011;57598;50.888;4.746;2023-02-26T15:31:18;22.25;;;20.90;;
21569;SDS011;57598;50.888;4.746;2023-02-26T15:33:46;20.73;;;19.52;;
21569;SDS011;57598;50.888;4.746;2023-02-26T15:36:15;20.30;;;19.10;;
21569;SDS011;57598;50.888;4.746;2023-02-26T15:38:47;20.77;;;19.58;;
21569;SDS011;57598;50.888;4.746;2023-02-26T15:41:15;21.52;;;20.13;;
21569;SDS011;57598;50.888;4.746;2023-02-26T15:43:46;21.05;;;19.75;;
21569;SDS011;57598;50.888;4.746;2023-02-26T15:46:14;20.03;;;18.93;;
21569;SDS011;57598;50.888;4.746;2023-02-26T15:48:42;20.13;;;19.02;;
21569;SDS011;57598;50.888;4.746;2023-02-26T15:51:10;20.55;;;19.35;;
21569;SDS011;57598;50.888;4.746;2023-02-26T15:53:39;20.05;;;18.85;;
21569;SDS011;57598;50.888;4.746;2023-02-26T15:56:09;20.27;;;19.13;;
21569;SDS011;57598;50.888;4.746;2023-02-26T15:58:38;20.00;;;18.80;;
21569;SDS011;57598;50.888;4.746;2023-02-26T16:01:12;21.40;;;20.10;;
21569;SDS011;57598;50.888;4.746;2023-02-26T16:03:41;21.83;;;20.33;;
21569;SDS011;57598;50.888;4.746;2023-02-26T16:06:10;20.98;;;19.77;;
21569;SDS011;57598;50.888;4.746;2023-02-26T16:08:38;21.17;;;19.92;;
21569;SDS011;57598;50.888;4.746;2023-02-26T16:11:05;21.33;;;20.00;;
21569;SDS011;57598;50.888;4.746;2023-02-26T16:13:35;20.35;;;19.15;;
21569;SDS011;57598;50.888;4.746;2023-02-26T16:16:04;20.65;;;19.45;;
21569;SDS011;57598;50.888;4.746;2023-02-26T16:18:34;21.40;;;20.20;;
21569;SDS011;57598;50.888;4.746;2023-02-26T16:21:03;21.17;;;19.98;;
21569;SDS011;57598;50.888;4.746;2023-02-26T16:23:36;21.30;;;20.10;;
21569;SDS011;57598;50.888;4.746;2023-02-26T16:26:06;20.50;;;19.30;;
21569;SDS011;57598;50.888;4.746;2023-02-26T16:28:36;21.17;;;19.98;;
21569;SDS011;57598;50.888;4.746;2023-02-26T16:31:11;21.90;;;20.60;;
21569;SDS011;57598;50.888;4.746;2023-02-26T16:33:40;20.63;;;19.40;;
21569;SDS011;57598;50.888;4.746;2023-02-26T16:36:16;21.10;;;19.90;;
21569;SDS011;57598;50.888;4.746;2023-02-26T16:38:48;20.83;;;19.63;;
21569;SDS011;57598;50.888;4.746;2023-02-26T16:41:19;21.95;;;20.65;;
21569;SDS011;57598;50.888;4.746;2023-02-26T16:43:52;21.45;;;20.15;;
21569;SDS011;57598;50.888;4.746;2023-02-26T16:46:25;20.85;;;19.65;;
21569;SDS011;57598;50.888;4.746;2023-02-26T16:48:55;21.25;;;20.05;;
21569;SDS011;57598;50.888;4.746;2023-02-26T16:51:24;21.45;;;20.15;;
21569;SDS011;57598;50.888;4.746;2023-02-26T16:53:53;22.05;;;20.80;;
21569;SDS011;57598;50.888;4.746;2023-02-26T16:56:23;21.20;;;19.85;;
21569;SDS011;57598;50.888;4.746;2023-02-26T16:59:00;24.13;;;22.45;;
21569;SDS011;57598;50.888;4.746;2023-02-26T17:01:33;21.38;;;20.10;;
21569;SDS011;57598;50.888;4.746;2023-02-26T17:04:02;21.77;;;20.58;;
21569;SDS011;57598;50.888;4.746;2023-02-26T17:06:40;21.27;;;20.08;;
21569;SDS011;57598;50.888;4.746;2023-02-26T17:09:21;22.92;;;21.45;;
21569;SDS011;57598;50.888;4.746;2023-02-26T17:12:05;21.88;;;20.58;;
21569;SDS011;57598;50.888;4.746;2023-02-26T17:14:40;20.60;;;19.40;;
21569;SDS011;57598;50.888;4.746;2023-02-26T17:17:14;20.00;;;18.90;;
